createdAt,value
2023-01-17T00:01:46.591Z,96114.16
2023-01-17T00:04:32.014Z,96111.06
2023-01-17T00:07:17.108Z,96101.66
2023-01-17T00:09:58.491Z,96112.59
2023-01-17T00:12:30.347Z,96114.75
2023-01-17T00:14:58.583Z,96111.28
2023-01-17T00:17:27.438Z,96115.28
2023-01-17T00:20:13.348Z,96113.63
2023-01-17T00:23:00.896Z,96115.44
2023-01-17T00:25:51.699Z,96121.22
2023-01-17T00:28:18.696Z,96122.09
2023-01-17T00:30:46.428Z,96144.63
2023-01-17T00:33:13.111Z,96122.97
2023-01-17T00:35:40.149Z,96126.09
2023-01-17T00:38:09.291Z,96132.44
2023-01-17T00:40:37.915Z,96145.84
2023-01-17T00:43:24.113Z,96152.47
2023-01-17T00:46:09.957Z,96156.63
2023-01-17T00:48:56.777Z,96152.34
2023-01-17T00:51:43.889Z,96153.31
2023-01-17T00:54:29.389Z,96160.41
2023-01-17T00:57:14.444Z,96160.41
2023-01-17T00:59:59.836Z,96163.41
2023-01-17T01:02:45.357Z,96171.19
2023-01-17T01:05:31.407Z,96167.34
2023-01-17T01:08:16.867Z,96175.13
2023-01-17T01:11:02.658Z,96177.94
2023-01-17T01:13:49.386Z,96175.28
2023-01-17T01:16:35.935Z,96186.88
2023-01-17T01:19:22.063Z,96197.00
2023-01-17T01:22:07.815Z,96198.47
2023-01-17T01:24:53.723Z,96199.75
2023-01-17T01:27:38.906Z,96200.13
2023-01-17T01:30:24.826Z,96199.44
2023-01-17T01:33:10.066Z,96212.03
2023-01-17T01:35:36.904Z,96220.28
2023-01-17T01:38:03.805Z,96225.59
2023-01-17T01:40:30.262Z,96227.41
2023-01-17T01:42:59.487Z,96225.09
2023-01-17T01:45:28.648Z,96238.66
2023-01-17T01:48:01.492Z,96252.38
2023-01-17T01:50:30.438Z,96247.47
2023-01-17T01:53:00.361Z,96252.25
2023-01-17T01:55:33.443Z,96249.41
2023-01-17T01:58:08.110Z,96255.56
2023-01-17T02:00:36.686Z,96254.06
2023-01-17T02:03:09.915Z,96269.94
2023-01-17T02:05:36.600Z,96271.13
2023-01-17T02:08:10.562Z,96276.41
2023-01-17T02:10:39.888Z,96277.25
2023-01-17T02:13:07.520Z,96293.97
2023-01-17T02:15:49.345Z,96285.88
2023-01-17T02:18:53.500Z,96292.81
2023-01-17T02:21:24.314Z,96306.72
2023-01-17T02:24:09.393Z,96315.28
2023-01-17T02:27:16.236Z,96307.53
2023-01-17T02:29:52.386Z,96320.25
2023-01-17T02:32:35.181Z,96322.06
2023-01-17T02:35:28.013Z,96331.50
2023-01-17T02:38:15.371Z,96317.78
2023-01-17T02:40:49.603Z,96325.88
2023-01-17T02:43:18.592Z,96336.78
2023-01-17T02:45:45.816Z,96341.09
2023-01-17T02:48:14.945Z,96336.13
2023-01-17T02:50:55.621Z,96332.16
2023-01-17T02:53:37.282Z,96337.78
2023-01-17T02:56:25.743Z,96342.91
2023-01-17T02:58:58.157Z,96348.53
2023-01-17T03:01:36.704Z,96349.19
2023-01-17T03:04:17.862Z,96346.72
2023-01-17T03:06:51.966Z,96347.53
2023-01-17T03:09:19.965Z,96350.50
2023-01-17T03:11:46.565Z,96351.50
2023-01-17T03:14:13.150Z,96351.84
2023-01-17T03:16:39.706Z,96351.34
2023-01-17T03:19:06.259Z,96342.75
2023-01-17T03:21:32.868Z,96343.09
2023-01-17T03:23:59.337Z,96346.72
2023-01-17T03:26:25.880Z,96346.38
2023-01-17T03:28:52.301Z,96346.06
2023-01-17T03:31:19.964Z,96354.97
2023-01-17T03:33:46.752Z,96353.63
2023-01-17T03:36:13.291Z,96358.94
2023-01-17T03:38:39.674Z,96367.53
2023-01-17T03:41:06.512Z,96367.19
2023-01-17T03:43:32.926Z,96373.81
2023-01-17T03:46:04.621Z,96376.91
2023-01-17T03:48:31.936Z,96371.63
2023-01-17T03:50:58.564Z,96385.53
2023-01-17T03:53:25.189Z,96385.38
2023-01-17T03:55:51.901Z,96392.59
2023-01-17T03:58:18.595Z,96387.00
2023-01-17T04:00:45.203Z,96380.75
2023-01-17T04:03:11.602Z,96392.97
2023-01-17T04:05:38.107Z,96391.16
2023-01-17T04:08:06.604Z,96390.66
2023-01-17T04:10:33.193Z,96391.81
2023-01-17T04:12:59.601Z,96393.13
2023-01-17T04:15:26.157Z,96393.13
2023-01-17T04:17:52.601Z,96402.22
2023-01-17T04:20:46.131Z,96391.34
2023-01-17T04:23:12.816Z,96391.84
2023-01-17T04:25:39.327Z,96387.84
2023-01-17T04:28:05.817Z,96384.72
2023-01-17T04:30:33.104Z,96387.34
2023-01-17T04:32:59.916Z,96382.88
2023-01-17T04:35:26.807Z,96397.28
2023-01-17T04:37:53.258Z,96384.56
2023-01-17T04:40:20.309Z,96387.84
2023-01-17T04:42:47.449Z,96385.38
2023-01-17T04:45:14.655Z,96389.50
2023-01-17T04:47:41.069Z,96393.97
2023-01-17T04:50:08.726Z,96396.97
2023-01-17T04:52:35.323Z,96399.25
2023-01-17T04:55:01.918Z,96394.31
2023-01-17T04:57:28.729Z,96406.06
2023-01-17T04:59:55.180Z,96408.00
2023-01-17T05:02:22.039Z,96394.63
2023-01-17T05:04:48.458Z,96400.41
2023-01-17T05:07:15.074Z,96405.38
2023-01-17T05:09:41.604Z,96403.03
2023-01-17T05:12:08.190Z,96407.69
2023-01-17T05:14:34.604Z,96408.88
2023-01-17T05:17:02.998Z,96401.25
2023-01-17T05:19:29.595Z,96400.25
2023-01-17T05:21:56.122Z,96405.53
2023-01-17T05:24:22.527Z,96398.91
2023-01-17T05:26:54.975Z,96408.50
2023-01-17T05:29:21.897Z,96410.13
2023-01-17T05:31:48.631Z,96410.63
2023-01-17T05:34:15.192Z,96407.16
2023-01-17T05:36:41.932Z,96417.41
2023-01-17T05:39:08.315Z,96423.31
2023-01-17T05:41:34.674Z,96424.66
2023-01-17T05:44:01.287Z,96423.63
2023-01-17T05:46:27.787Z,96418.63
2023-01-17T05:48:54.179Z,96418.09
2023-01-17T05:51:20.777Z,96420.91
2023-01-17T05:53:47.170Z,96420.09
2023-01-17T05:56:14.095Z,96429.38
2023-01-17T05:58:40.692Z,96429.38
2023-01-17T06:01:07.186Z,96428.56
2023-01-17T06:03:33.958Z,96433.66
2023-01-17T06:06:00.398Z,96435.38
2023-01-17T06:08:26.780Z,96441.69
2023-01-17T06:10:53.326Z,96447.34
2023-01-17T06:13:21.939Z,96447.63
2023-01-17T06:15:48.981Z,96441.13
2023-01-17T06:18:16.996Z,96441.97
2023-01-17T06:20:44.268Z,96443.63
2023-01-17T06:23:13.009Z,96448.50
2023-01-17T06:25:45.125Z,96451.84
2023-01-17T06:28:16.737Z,96454.94
2023-01-17T06:30:43.916Z,96454.78
2023-01-17T06:33:10.698Z,96464.41
2023-01-17T06:35:44.208Z,96467.03
2023-01-17T06:38:10.662Z,96459.94
2023-01-17T06:40:37.235Z,96463.28
2023-01-17T06:43:04.664Z,96470.72
2023-01-17T06:45:33.751Z,96461.56
2023-01-17T06:48:01.540Z,96471.91
2023-01-17T06:50:28.371Z,96464.44
2023-01-17T06:52:56.740Z,96464.44
2023-01-17T06:55:23.805Z,96464.97
2023-01-17T06:57:50.644Z,96463.13
2023-01-17T07:00:17.574Z,96470.13
2023-01-17T07:02:47.701Z,96475.31
2023-01-17T07:05:16.270Z,96465.91
2023-01-17T07:07:43.790Z,96468.75
2023-01-17T07:10:11.548Z,96458.97
2023-01-17T07:12:38.205Z,96468.97
2023-01-17T07:15:06.137Z,96464.03
2023-01-17T07:17:34.326Z,96465.72
2023-01-17T07:20:01.370Z,96461.69
2023-01-17T07:22:27.896Z,96470.25
2023-01-17T07:24:58.346Z,96466.41
2023-01-17T07:27:25.774Z,96479.09
2023-01-17T07:29:54.296Z,96480.47
2023-01-17T07:32:20.954Z,96474.88
2023-01-17T07:34:48.756Z,96478.84
2023-01-17T07:37:15.612Z,96471.97
2023-01-17T07:39:42.422Z,96479.97
2023-01-17T07:42:09.273Z,96480.69
2023-01-17T07:44:36.137Z,96471.91
2023-01-17T07:47:04.121Z,96481.13
2023-01-17T07:49:30.588Z,96485.06
2023-01-17T07:51:57.078Z,96477.97
2023-01-17T07:54:23.432Z,96482.59
2023-01-17T07:56:49.909Z,96482.44
2023-01-17T07:59:17.893Z,96480.09
2023-01-17T08:01:44.572Z,96485.84
2023-01-17T08:04:11.545Z,96485.97
2023-01-17T08:06:43.303Z,96488.63
2023-01-17T08:09:09.965Z,96480.34
2023-01-17T08:11:36.387Z,96485.91
2023-01-17T08:14:02.872Z,96480.50
2023-01-17T08:16:31.001Z,96488.63
2023-01-17T08:18:57.493Z,96489.28
2023-01-17T08:21:24.137Z,96485.47
2023-01-17T08:23:52.322Z,96485.91
2023-01-17T08:26:23.693Z,96485.97
2023-01-17T08:29:02.906Z,96477.09
2023-01-17T08:31:34.577Z,96468.13
2023-01-17T08:34:01.531Z,96463.00
2023-01-17T08:36:28.774Z,96471.59
2023-01-17T08:38:55.571Z,96480.53
2023-01-17T08:41:23.222Z,96471.69
2023-01-17T08:43:51.629Z,96475.50
2023-01-17T08:46:18.509Z,96466.91
2023-01-17T08:48:45.591Z,96469.84
2023-01-17T08:51:12.420Z,96473.00
2023-01-17T08:53:39.113Z,96477.75
2023-01-17T08:56:06.105Z,96474.59
2023-01-17T08:58:32.969Z,96482.97
2023-01-17T09:01:02.583Z,96477.69
2023-01-17T09:03:30.783Z,96484.44
2023-01-17T09:06:05.870Z,96487.59
2023-01-17T09:08:32.549Z,96489.41
2023-01-17T09:10:58.986Z,96487.34
2023-01-17T09:13:25.581Z,96482.75
2023-01-17T09:15:56.381Z,96483.84
2023-01-17T09:18:23.238Z,96476.81
2023-01-17T09:20:49.606Z,96488.38
2023-01-17T09:23:16.147Z,96477.66
2023-01-17T09:25:44.557Z,96482.81
2023-01-17T09:28:11.058Z,96475.19
2023-01-17T09:30:37.447Z,96471.69
2023-01-17T09:33:04.085Z,96480.47
2023-01-17T09:35:31.239Z,96482.09
2023-01-17T09:37:58.219Z,96481.50
2023-01-17T09:40:25.520Z,96477.03
2023-01-17T09:42:58.074Z,96485.47
2023-01-17T09:45:27.685Z,96484.03
2023-01-17T09:47:54.899Z,96485.38
2023-01-17T09:50:28.578Z,96489.84
2023-01-17T09:53:01.221Z,96484.56
2023-01-17T09:55:37.093Z,96488.22
2023-01-17T09:58:09.260Z,96481.38
2023-01-17T10:00:45.054Z,96481.63
2023-01-17T10:03:28.526Z,96489.06
2023-01-17T10:06:12.787Z,96490.41
2023-01-17T10:08:55.513Z,96490.06
2023-01-17T10:11:50.077Z,96494.22
2023-01-17T10:14:34.242Z,96494.75
2023-01-17T10:17:22.248Z,96480.38
2023-01-17T10:20:13.796Z,96481.06
2023-01-17T10:23:03.826Z,96474.97
2023-01-17T10:25:47.593Z,96482.44
2023-01-17T10:28:23.394Z,96477.00
2023-01-17T10:30:52.559Z,96476.69
2023-01-17T10:33:20.927Z,96476.19
2023-01-17T10:36:18.706Z,96476.03
2023-01-17T10:38:48.468Z,96481.16
2023-01-17T10:41:18.147Z,96483.00
2023-01-17T10:43:59.855Z,96476.38
2023-01-17T10:46:52.018Z,96482.88
2023-01-17T10:49:24.604Z,96473.75
2023-01-17T10:52:06.451Z,96469.63
2023-01-17T10:55:16.376Z,96458.88
2023-01-17T10:57:44.621Z,96461.84
2023-01-17T11:00:43.972Z,96457.69
2023-01-17T11:03:15.972Z,96462.84
2023-01-17T11:05:43.117Z,96456.69
2023-01-17T11:08:15.553Z,96460.03
2023-01-17T11:10:45.417Z,96461.81
2023-01-17T11:13:32.773Z,96454.19
2023-01-17T11:16:03.988Z,96444.63
2023-01-17T11:18:33.310Z,96439.00
2023-01-17T11:21:18.615Z,96445.94
2023-01-17T11:23:47.660Z,96449.69
2023-01-17T11:26:30.488Z,96442.13
2023-01-17T11:29:32.155Z,96449.91
2023-01-17T11:32:26.936Z,96446.94
2023-01-17T11:35:17.621Z,96446.94
2023-01-17T11:37:58.098Z,96443.63
2023-01-17T11:40:41.336Z,96451.41
2023-01-17T11:43:18.935Z,96450.44
2023-01-17T11:45:47.379Z,96446.63
2023-01-17T11:48:17.027Z,96444.28
2023-01-17T11:51:00.544Z,96444.94
2023-01-17T11:53:33.218Z,96446.25
2023-01-17T11:56:11.127Z,96438.94
2023-01-17T11:58:42.973Z,96427.47
2023-01-17T12:02:02.096Z,96429.91
2023-01-17T12:04:38.567Z,96421.63
2023-01-17T12:07:17.927Z,96431.41
2023-01-17T12:09:56.763Z,96419.97
2023-01-17T12:12:44.854Z,96422.94
2023-01-17T12:15:16.664Z,96414.47
2023-01-17T12:17:50.338Z,96413.97
2023-01-17T12:20:44.505Z,96411.31
2023-01-17T12:23:40.465Z,96413.59
2023-01-17T12:26:23.881Z,96406.00
2023-01-17T12:29:12.534Z,96401.38
2023-01-17T12:31:56.676Z,96399.50
2023-01-17T12:34:41.868Z,96392.22
2023-01-17T12:37:17.115Z,96396.88
2023-01-17T12:39:51.133Z,96394.69
2023-01-17T12:42:24.432Z,96397.94
2023-01-17T12:45:04.314Z,96385.47
2023-01-17T12:47:34.195Z,96379.50
2023-01-17T12:50:20.060Z,96379.38
2023-01-17T12:53:18.106Z,96376.44
2023-01-17T12:56:05.882Z,96370.84
2023-01-17T12:58:45.706Z,96366.53
2023-01-17T13:01:22.951Z,96363.81
2023-01-17T13:04:24.187Z,96359.81
2023-01-17T13:06:59.600Z,96359.69
2023-01-17T13:09:33.632Z,96358.28
2023-01-17T13:12:10.078Z,96355.66
2023-01-17T13:14:36.547Z,96365.16
2023-01-17T13:17:49.776Z,96365.38
2023-01-17T13:20:45.642Z,96366.56
2023-01-17T13:23:32.355Z,96377.03
2023-01-17T13:26:01.932Z,96382.00
2023-01-17T13:28:42.801Z,96377.03
2023-01-17T13:31:17.019Z,96386.66
2023-01-17T13:34:02.925Z,96383.03
2023-01-17T13:36:40.313Z,96379.38
2023-01-17T13:39:06.642Z,96377.75
2023-01-17T13:41:42.235Z,96378.41
2023-01-17T13:44:23.165Z,96385.88
2023-01-17T13:47:04.121Z,96387.22
2023-01-17T13:49:34.114Z,96392.34
2023-01-17T13:52:20.877Z,96399.97
2023-01-17T13:54:48.641Z,96400.44
2023-01-17T13:57:32.910Z,96401.63
2023-01-17T14:00:22.842Z,96397.81
2023-01-17T14:02:51.076Z,96393.53
2023-01-17T14:05:47.453Z,96399.97
2023-01-17T14:08:17.310Z,96390.69
2023-01-17T14:10:47.592Z,96388.88
2023-01-17T14:13:35.539Z,96384.91
2023-01-17T14:16:29.551Z,96388.88
2023-01-17T14:18:56.316Z,96386.41
2023-01-17T14:21:32.454Z,96386.56
2023-01-17T14:24:06.431Z,96376.94
2023-01-17T14:27:14.727Z,96368.50
2023-01-17T14:29:48.676Z,96378.28
2023-01-17T14:32:21.929Z,96374.78
2023-01-17T14:34:51.177Z,96383.25
2023-01-17T14:37:24.145Z,96385.09
2023-01-17T14:39:51.195Z,96375.81
2023-01-17T14:42:22.086Z,96382.44
2023-01-17T14:44:51.388Z,96379.13
2023-01-17T14:47:17.960Z,96369.84
2023-01-17T14:49:44.862Z,96370.19
2023-01-17T14:52:17.496Z,96376.47
2023-01-17T14:54:48.902Z,96385.41
2023-01-17T14:57:28.200Z,96382.09
2023-01-17T15:00:21.021Z,96394.50
2023-01-17T15:02:49.011Z,96394.00
2023-01-17T15:05:18.739Z,96396.63
2023-01-17T15:07:48.500Z,96391.47
2023-01-17T15:10:18.600Z,96393.63
2023-01-17T15:12:48.130Z,96389.28
2023-01-17T15:15:32.889Z,96395.72
2023-01-17T15:18:09.635Z,96391.06
2023-01-17T15:20:37.853Z,96396.31
2023-01-17T15:23:04.516Z,96400.72
2023-01-17T15:25:31.368Z,96401.50
2023-01-17T15:27:58.138Z,96399.66
2023-01-17T15:30:25.264Z,96400.13
2023-01-17T15:32:52.881Z,96400.25
2023-01-17T15:35:20.456Z,96400.38
2023-01-17T15:37:52.604Z,96405.09
2023-01-17T15:40:24.511Z,96409.47
2023-01-17T15:42:56.447Z,96407.59
2023-01-17T15:45:28.392Z,96418.28
2023-01-17T15:47:56.316Z,96421.97
2023-01-17T15:50:24.550Z,96425.53
2023-01-17T15:53:05.912Z,96429.22
2023-01-17T15:55:38.594Z,96426.50
2023-01-17T15:58:23.157Z,96432.53
2023-01-17T16:00:49.672Z,96427.19
2023-01-17T16:03:19.356Z,96428.75
2023-01-17T16:05:46.807Z,96429.06
2023-01-17T16:08:16.047Z,96426.34
2023-01-17T16:10:44.434Z,96433.03
2023-01-17T16:13:13.562Z,96429.94
2023-01-17T16:15:42.772Z,96436.31
2023-01-17T16:18:23.953Z,96440.13
2023-01-17T16:21:14.636Z,96439.72
2023-01-17T16:23:41.580Z,96448.91
2023-01-17T16:26:10.837Z,96445.97
2023-01-17T16:28:38.549Z,96442.63
2023-01-17T16:31:05.365Z,96445.41
2023-01-17T16:33:31.805Z,96446.28
2023-01-17T16:35:58.521Z,96440.50
2023-01-17T16:38:25.011Z,96451.59
2023-01-17T16:40:51.450Z,96451.06
2023-01-17T16:43:19.235Z,96454.97
2023-01-17T16:45:48.216Z,96450.41
2023-01-17T16:48:16.342Z,96451.66
2023-01-17T16:50:48.093Z,96447.69
2023-01-17T16:53:15.321Z,96453.22
2023-01-17T16:55:43.625Z,96455.84
2023-01-17T16:58:10.297Z,96457.09
2023-01-17T17:00:37.067Z,96458.50
2023-01-17T17:03:03.690Z,96459.91
2023-01-17T17:05:33.387Z,96457.28
2023-01-17T17:08:00.896Z,96468.34
2023-01-17T17:10:27.918Z,96467.38
2023-01-17T17:12:55.012Z,96480.00
2023-01-17T17:15:21.500Z,96481.41
2023-01-17T17:17:48.226Z,96479.59
2023-01-17T17:20:15.607Z,96478.63
2023-01-17T17:22:44.041Z,96489.28
2023-01-17T17:25:12.070Z,96492.31
2023-01-17T17:27:39.050Z,96500.47
2023-01-17T17:30:06.390Z,96499.94
2023-01-17T17:32:33.060Z,96509.06
2023-01-17T17:34:59.791Z,96502.00
2023-01-17T17:37:28.963Z,96508.25
2023-01-17T17:39:56.595Z,96512.78
2023-01-17T17:42:23.532Z,96520.97
2023-01-17T17:44:49.978Z,96516.69
2023-01-17T17:47:16.588Z,96516.25
2023-01-17T17:49:43.445Z,96522.78
2023-01-17T17:52:10.510Z,96517.22
2023-01-17T17:54:36.935Z,96522.06
2023-01-17T17:57:03.630Z,96519.72
2023-01-17T17:59:31.118Z,96520.25
2023-01-17T18:01:59.596Z,96520.38
2023-01-17T18:04:26.769Z,96526.19
2023-01-17T18:06:57.515Z,96527.56
2023-01-17T18:09:24.640Z,96533.06
2023-01-17T18:11:51.167Z,96538.31
2023-01-17T18:14:20.763Z,96544.56
2023-01-17T18:16:47.671Z,96543.59
2023-01-17T18:19:18.018Z,96545.00
2023-01-17T18:21:44.627Z,96550.38
2023-01-17T18:24:13.949Z,96539.19
2023-01-17T18:26:42.239Z,96533.91
2023-01-17T18:29:12.380Z,96545.94
2023-01-17T18:31:38.893Z,96545.63
2023-01-17T18:34:08.371Z,96544.94
2023-01-17T18:36:35.586Z,96546.28
2023-01-17T18:39:05.448Z,96549.03
2023-01-17T18:41:32.357Z,96549.34
2023-01-17T18:43:58.927Z,96557.91
2023-01-17T18:46:26.241Z,96548.78
2023-01-17T18:48:56.033Z,96553.75
2023-01-17T18:51:22.919Z,96555.66
2023-01-17T18:53:49.851Z,96560.66
2023-01-17T18:56:19.471Z,96560.97
2023-01-17T18:58:47.843Z,96557.66
2023-01-17T19:01:23.196Z,96556.50
2023-01-17T19:03:52.437Z,96567.13
2023-01-17T19:06:24.889Z,96559.53
2023-01-17T19:08:51.969Z,96569.19
2023-01-17T19:11:20.530Z,96565.44
2023-01-17T19:13:48.484Z,96573.72
2023-01-17T19:16:24.405Z,96573.56
2023-01-17T19:18:52.223Z,96576.50
2023-01-17T19:21:21.375Z,96581.63
2023-01-17T19:23:49.104Z,96574.28
2023-01-17T19:26:20.037Z,96576.34
2023-01-17T19:28:48.864Z,96583.13
2023-01-17T19:31:18.490Z,96596.00
2023-01-17T19:33:46.766Z,96590.88
2023-01-17T19:36:19.328Z,96600.25
2023-01-17T19:38:58.742Z,96600.69
2023-01-17T19:41:30.634Z,96602.16
2023-01-17T19:44:02.236Z,96608.63
2023-01-17T19:46:29.192Z,96608.75
2023-01-17T19:48:57.478Z,96606.81
2023-01-17T19:51:24.999Z,96606.66
2023-01-17T19:53:53.447Z,96608.28
2023-01-17T19:56:22.219Z,96606.09
2023-01-17T19:58:49.037Z,96615.03
2023-01-17T20:01:21.519Z,96618.88
2023-01-17T20:03:51.141Z,96620.53
2023-01-17T20:06:20.644Z,96622.06
2023-01-17T20:08:47.270Z,96620.16
2023-01-17T20:11:20.120Z,96624.56
2023-01-17T20:13:47.852Z,96631.47
2023-01-17T20:16:16.504Z,96630.53
2023-01-17T20:18:43.947Z,96625.53
2023-01-17T20:21:18.726Z,96632.00
2023-01-17T20:23:49.975Z,96637.50
2023-01-17T20:26:34.267Z,96634.31
2023-01-17T20:29:02.759Z,96632.19
2023-01-17T20:31:30.025Z,96645.28
2023-01-17T20:33:56.693Z,96638.53
2023-01-17T20:36:26.611Z,96637.56
2023-01-17T20:38:54.443Z,96640.16
2023-01-17T20:41:28.534Z,96641.28
2023-01-17T20:43:57.373Z,96653.28
2023-01-17T20:46:26.559Z,96648.75
2023-01-17T20:48:55.139Z,96637.81
2023-01-17T20:51:24.025Z,96655.47
2023-01-17T20:53:53.110Z,96653.81
2023-01-17T20:56:20.189Z,96655.34
2023-01-17T20:58:46.625Z,96664.56
2023-01-17T21:01:24.833Z,96664.69
2023-01-17T21:03:53.717Z,96662.88
2023-01-17T21:06:24.528Z,96666.84
2023-01-17T21:08:52.036Z,96665.16
2023-01-17T21:11:21.497Z,96668.19
2023-01-17T21:13:48.852Z,96663.63
2023-01-17T21:16:20.251Z,96664.13
2023-01-17T21:18:48.150Z,96667.13
2023-01-17T21:21:21.897Z,96676.53
2023-01-17T21:23:50.653Z,96675.59
2023-01-17T21:26:19.498Z,96669.38
2023-01-17T21:28:47.550Z,96674.63
2023-01-17T21:31:24.750Z,96680.59
2023-01-17T21:33:58.055Z,96674.03
2023-01-17T21:36:30.562Z,96671.28
2023-01-17T21:38:58.622Z,96679.41
2023-01-17T21:41:28.543Z,96679.16
2023-01-17T21:43:57.071Z,96680.84
2023-01-17T21:46:24.676Z,96681.06
2023-01-17T21:48:52.283Z,96682.75
2023-01-17T21:51:21.937Z,96682.13
2023-01-17T21:53:48.625Z,96691.22
2023-01-17T21:56:33.909Z,96691.47
2023-01-17T21:59:00.572Z,96699.44
2023-01-17T22:01:29.577Z,96705.78
2023-01-17T22:04:02.637Z,96701.13
2023-01-17T22:06:34.239Z,96704.81
2023-01-17T22:09:00.683Z,96710.44
2023-01-17T22:11:30.211Z,96702.69
2023-01-17T22:13:58.864Z,96712.13
2023-01-17T22:16:25.884Z,96703.28
2023-01-17T22:18:52.701Z,96706.88
2023-01-17T22:21:24.767Z,96708.94
2023-01-17T22:23:53.652Z,96707.25
2023-01-17T22:26:26.659Z,96708.06
2023-01-17T22:28:53.841Z,96707.75
2023-01-17T22:31:25.825Z,96714.41
2023-01-17T22:33:55.072Z,96706.78
2023-01-17T22:36:22.120Z,96708.56
2023-01-17T22:38:48.764Z,96708.47
2023-01-17T22:41:19.885Z,96710.22
2023-01-17T22:43:48.915Z,96715.34
2023-01-17T22:46:21.484Z,96707.38
2023-01-17T22:48:48.504Z,96709.16
2023-01-17T22:51:16.846Z,96713.59
2023-01-17T22:53:48.803Z,96712.59
2023-01-17T22:56:18.447Z,96713.94
2023-01-17T22:58:45.402Z,96711.66
2023-01-17T23:01:17.408Z,96708.47
2023-01-17T23:03:45.186Z,96709.28
2023-01-17T23:06:11.971Z,96708.22
2023-01-17T23:08:41.181Z,96708.34
2023-01-17T23:11:43.856Z,96709.75
2023-01-17T23:14:16.749Z,96706.19
2023-01-17T23:17:06.240Z,96705.09
2023-01-17T23:19:44.162Z,96703.69
2023-01-17T23:22:15.933Z,96700.19
2023-01-17T23:24:55.820Z,96703.22
2023-01-17T23:27:42.370Z,96713.47
2023-01-17T23:30:16.309Z,96703.81
2023-01-17T23:32:52.049Z,96699.06
2023-01-17T23:35:20.545Z,96709.06
2023-01-17T23:38:05.983Z,96702.03
2023-01-17T23:40:34.373Z,96698.47
2023-01-17T23:43:19.913Z,96701.44
2023-01-17T23:45:46.796Z,96699.75
2023-01-17T23:48:13.607Z,96699.75
2023-01-17T23:50:42.464Z,96691.91
2023-01-17T23:53:09.405Z,96692.16
2023-01-17T23:55:38.033Z,96695.94
2023-01-17T23:58:10.208Z,96701.91
